Alcova, Wyoming
Current Conditions -  °F | °C
As of 9:53 AM on Friday 28 Nov 2014 (Local Time) from KCPR Reporting Station
Clear Clear  
Wind Chill: 42°   Ceiling: Unl
Heat Index: 49°   Visibility: 10mi
Dew Point: 19°   Wind: 22mph
Humidity: 31%   Direction: 220°SW
Pressure: 29.83"   Gusts: 31mph
Location:  42.55°N, 106.72°W
Report Text: KCPR 281653Z 22019G27KT 10SM CLR 09/M07 A2983 RMK AO2 PK WND 21027/1646 SLP078 T00941072
Loading
Personal Weather Stations






























Interactive Weather Map New forecast layout! Learn more

10-Day Weather Forecast

Advertisements
Track Severe Weather on mobile